Time;durP1;ratioP1;P1;durP2;ratioP2;P2;SDS_P1;SDS_P2;PMS_P1;PMS_P2;Temp;Humidity;BMP_temperature;BMP_pressure;BME280_temperature;BME280_humidity;BME280_pressure;Samples;Min_cycle;Max_cycle;Signal;HPM_P1;HPM_P2
2021/03/31 00:00:08;;;;;;;50.17;35.50;;;;;;;;;;5054130;28;20599;-83
2021/03/31 00:02:34;;;;;;;49.17;35.43;;;;;;;;;;5054369;28;20215;-83
2021/03/31 00:04:59;;;;;;;52.57;34.80;;;;;;;;;;5052615;28;20179;-83
2021/03/31 00:07:24;;;;;;;49.47;34.67;;;;;;;;;;5053894;28;20673;-83
2021/03/31 00:09:50;;;;;;;47.30;34.87;;;;;;;;;;5053575;28;20290;-83
2021/03/31 00:12:15;;;;;;;51.03;34.43;;;;;;;;;;5054081;28;20247;-84
2021/03/31 00:14:40;;;;;;;57.67;35.97;;;;;;;;;;5053864;28;20172;-83
2021/03/31 00:17:06;;;;;;;55.87;37.17;;;;;;;;;;5053449;28;20175;-83
2021/03/31 00:19:31;;;;;;;49.67;36.20;;;;;;;;;;5053760;28;20226;-83
2021/03/31 00:21:56;;;;;;;50.60;34.53;;;;;;;;;;5053372;28;20534;-84
2021/03/31 00:24:22;;;;;;;48.47;34.93;;;;;;;;;;5053609;28;20175;-83
2021/03/31 00:26:47;;;;;;;53.17;35.40;;;;;;;;;;5053693;28;20171;-84
2021/03/31 00:29:12;;;;;;;52.70;35.17;;;;;;;;;;5054216;28;20212;-83
2021/03/31 00:31:38;;;;;;;55.17;35.37;;;;;;;;;;5053131;28;20176;-83
2021/03/31 00:34:03;;;;;;;52.40;35.83;;;;;;;;;;5053343;28;20174;-83
2021/03/31 00:36:28;;;;;;;53.10;35.77;;;;;;;;;;5054044;28;20691;-83
2021/03/31 00:38:53;;;;;;;47.97;33.47;;;;;;;;;;5058121;28;20594;-84
2021/03/31 00:41:19;;;;;;;47.77;33.83;;;;;;;;;;5057938;28;20669;-84
2021/03/31 00:43:44;;;;;;;51.97;33.90;;;;;;;;;;5056333;28;20179;-84
2021/03/31 00:46:10;;;;;;;50.53;34.67;;;;;;;;;;5057575;28;20191;-83
2021/03/31 00:48:35;;;;;;;49.53;33.10;;;;;;;;;;5060051;28;20199;-82
2021/03/31 00:51:01;;;;;;;49.73;32.90;;;;;;;;;;5062039;28;20184;-82
2021/03/31 00:53:28;;;;;;;53.33;33.50;;;;;;;;;;5060727;28;20164;-82
2021/03/31 00:55:53;;;;;;;51.50;33.60;;;;;;;;;;5059541;28;20199;-83
2021/03/31 00:58:19;;;;;;;51.17;33.93;;;;;;;;;;5056978;28;20220;-83
2021/03/31 01:00:45;;;;;;;51.00;32.80;;;;;;;;;;5057060;28;20176;-83
2021/03/31 01:03:10;;;;;;;52.93;34.10;;;;;;;;;;5057217;28;20176;-83
2021/03/31 01:05:35;;;;;;;53.57;34.90;;;;;;;;;;5057534;28;20168;-83
2021/03/31 01:08:01;;;;;;;58.93;38.30;;;;;;;;;;5057543;28;20254;-84
2021/03/31 01:10:46;;;;;;;50.13;33.63;;;;;;;;;;5057103;28;20571;-83
2021/03/31 01:13:27;;;;;;;53.03;33.57;;;;;;;;;;5056880;28;20606;-83
2021/03/31 01:16:04;;;;;;;48.57;32.40;;;;;;;;;;5057379;28;20258;-83
2021/03/31 01:18:40;;;;;;;50.23;30.60;;;;;;;;;;5057061;28;20229;-83
2021/03/31 01:21:14;;;;;;;55.07;32.83;;;;;;;;;;5056911;28;20172;-84
2021/03/31 01:23:58;;;;;;;52.87;33.27;;;;;;;;;;5057217;28;20665;-83
2021/03/31 01:26:26;;;;;;;49.53;31.37;;;;;;;;;;5056794;28;20174;-83
2021/03/31 01:29:02;;;;;;;52.57;31.93;;;;;;;;;;5056550;28;20199;-83
2021/03/31 01:31:28;;;;;;;52.50;33.73;;;;;;;;;;5057129;28;20222;-83
2021/03/31 01:34:00;;;;;;;48.40;31.43;;;;;;;;;;5056850;28;20179;-83
2021/03/31 01:36:27;;;;;;;45.27;30.30;;;;;;;;;;5056698;28;20611;-83
2021/03/31 01:38:55;;;;;;;45.33;30.10;;;;;;;;;;5056689;28;20638;-82
2021/03/31 01:41:20;;;;;;;47.37;31.33;;;;;;;;;;5056550;28;20172;-82
2021/03/31 01:43:50;;;;;;;44.90;28.43;;;;;;;;;;5056745;28;20164;-82
2021/03/31 01:46:17;;;;;;;48.40;30.67;;;;;;;;;;5056394;28;20247;-82
2021/03/31 01:48:42;;;;;;;47.00;30.10;;;;;;;;;;5055546;28;20204;-82
2021/03/31 01:51:10;;;;;;;50.13;30.07;;;;;;;;;;5056485;28;20184;-82
2021/03/31 01:53:37;;;;;;;48.20;31.03;;;;;;;;;;5056340;28;20176;-82
2021/03/31 01:56:03;;;;;;;45.50;29.93;;;;;;;;;;5056276;28;20736;-82
2021/03/31 01:58:30;;;;;;;47.10;31.97;;;;;;;;;;5056214;28;20266;-82
2021/03/31 02:00:56;;;;;;;48.60;30.30;;;;;;;;;;5056186;28;20183;-82
2021/03/31 02:03:22;;;;;;;41.80;29.57;;;;;;;;;;5056172;28;20168;-83
2021/03/31 02:05:48;;;;;;;44.27;30.20;;;;;;;;;;5056901;28;20176;-83
2021/03/31 02:08:14;;;;;;;40.60;28.70;;;;;;;;;;5056479;28;20289;-83
2021/03/31 02:10:40;;;;;;;41.73;29.30;;;;;;;;;;5055932;28;20215;-82
2021/03/31 02:13:06;;;;;;;40.13;28.50;;;;;;;;;;5056163;28;20178;-83
2021/03/31 02:15:31;;;;;;;39.60;28.50;;;;;;;;;;5055914;28;20176;-83
2021/03/31 02:17:57;;;;;;;39.73;28.70;;;;;;;;;;5056522;28;20179;-83
2021/03/31 02:20:23;;;;;;;40.13;28.43;;;;;;;;;;5056157;28;20176;-83
2021/03/31 02:22:49;;;;;;;38.67;28.60;;;;;;;;;;5055859;28;20622;-83
2021/03/31 02:25:15;;;;;;;37.80;27.63;;;;;;;;;;5056121;28;20172;-83
2021/03/31 02:27:40;;;;;;;35.27;25.87;;;;;;;;;;5055756;28;20168;-83
2021/03/31 02:30:07;;;;;;;37.50;26.40;;;;;;;;;;5055322;28;20294;-82
2021/03/31 02:32:34;;;;;;;41.97;29.13;;;;;;;;;;5056224;28;20510;-83
2021/03/31 02:35:00;;;;;;;36.37;27.60;;;;;;;;;;5055875;28;20179;-83
2021/03/31 02:37:26;;;;;;;40.70;27.93;;;;;;;;;;5055763;28;20206;-83
2021/03/31 02:39:52;;;;;;;37.17;26.77;;;;;;;;;;5055306;28;20199;-83
2021/03/31 02:42:18;;;;;;;37.27;27.27;;;;;;;;;;5055416;28;20175;-83
2021/03/31 02:44:45;;;;;;;37.00;27.87;;;;;;;;;;5055086;28;20169;-83
2021/03/31 02:47:12;;;;;;;41.50;29.03;;;;;;;;;;5055705;28;20182;-83
2021/03/31 02:49:38;;;;;;;36.40;27.40;;;;;;;;;;5055457;28;20203;-83
2021/03/31 02:52:05;;;;;;;39.53;28.13;;;;;;;;;;5055493;28;20281;-83
2021/03/31 02:54:31;;;;;;;37.30;27.50;;;;;;;;;;5055247;28;20221;-83
2021/03/31 02:56:56;;;;;;;37.73;26.97;;;;;;;;;;5054981;28;20534;-83
2021/03/31 02:59:22;;;;;;;35.13;27.10;;;;;;;;;;5055215;28;20192;-82
2021/03/31 03:01:47;;;;;;;35.93;26.37;;;;;;;;;;5054998;28;20257;-83
2021/03/31 03:04:13;;;;;;;36.07;27.20;;;;;;;;;;5054965;28;20388;-83
2021/03/31 03:06:39;;;;;;;33.30;26.03;;;;;;;;;;5054740;28;20183;-82
2021/03/31 03:09:06;;;;;;;34.60;26.27;;;;;;;;;;5057604;28;20195;-81
2021/03/31 03:11:32;;;;;;;35.03;26.57;;;;;;;;;;5057078;28;20177;-82
2021/03/31 03:13:58;;;;;;;35.43;26.17;;;;;;;;;;5054623;28;20172;-83
2021/03/31 03:16:24;;;;;;;36.37;25.90;;;;;;;;;;5054807;28;20176;-83
2021/03/31 03:18:50;;;;;;;31.17;25.17;;;;;;;;;;5054856;28;20236;-84
2021/03/31 03:21:15;;;;;;;35.00;26.43;;;;;;;;;;5054869;28;20198;-83
2021/03/31 03:23:42;;;;;;;32.37;25.73;;;;;;;;;;5055244;28;20198;-84
2021/03/31 03:26:08;;;;;;;32.40;25.83;;;;;;;;;;5054779;28;20184;-83
2021/03/31 03:28:34;;;;;;;34.03;25.97;;;;;;;;;;5054417;28;20616;-83
2021/03/31 03:31:00;;;;;;;36.03;27.03;;;;;;;;;;5054631;28;20258;-83
2021/03/31 03:33:25;;;;;;;34.40;26.43;;;;;;;;;;5054501;28;20500;-83
2021/03/31 03:35:51;;;;;;;35.07;26.57;;;;;;;;;;5054456;28;20168;-83
2021/03/31 03:38:16;;;;;;;35.90;26.33;;;;;;;;;;5054621;28;20602;-83
2021/03/31 03:40:45;;;;;;;33.17;24.97;;;;;;;;;;5054604;28;20638;-82
2021/03/31 03:43:13;;;;;;;32.73;25.10;;;;;;;;;;5054519;28;20606;-82
2021/03/31 03:45:39;;;;;;;36.10;26.20;;;;;;;;;;5053942;28;20251;-83
2021/03/31 03:48:05;;;;;;;34.70;25.00;;;;;;;;;;5054164;28;20199;-83
2021/03/31 03:50:30;;;;;;;34.50;25.93;;;;;;;;;;5054109;28;20214;-83
2021/03/31 03:52:55;;;;;;;37.77;26.13;;;;;;;;;;5053828;28;20619;-83
2021/03/31 03:55:24;;;;;;;32.83;26.07;;;;;;;;;;5054637;28;20496;-83
2021/03/31 03:57:50;;;;;;;37.90;25.97;;;;;;;;;;5053919;28;20168;-83
2021/03/31 04:00:24;;;;;;;39.43;26.87;;;;;;;;;;5053764;28;20171;-83
2021/03/31 04:02:50;;;;;;;36.40;27.47;;;;;;;;;;5053841;28;20167;-83
2021/03/31 04:05:16;;;;;;;39.00;28.07;;;;;;;;;;5053727;28;20179;-83
2021/03/31 04:07:41;;;;;;;44.03;32.27;;;;;;;;;;5054252;28;20227;-82
2021/03/31 04:10:07;;;;;;;43.83;29.97;;;;;;;;;;5053464;28;20195;-82
2021/03/31 04:12:34;;;;;;;38.17;28.07;;;;;;;;;;5053247;28;20180;-83
2021/03/31 04:14:59;;;;;;;38.97;28.57;;;;;;;;;;5053594;28;20172;-83
2021/03/31 04:17:25;;;;;;;40.67;28.63;;;;;;;;;;5053858;28;20317;-83
2021/03/31 04:19:51;;;;;;;43.23;27.73;;;;;;;;;;5053428;28;20241;-83
2021/03/31 04:22:17;;;;;;;41.57;29.60;;;;;;;;;;5053725;28;20172;-83
2021/03/31 04:24:42;;;;;;;47.63;33.10;;;;;;;;;;5053907;28;20174;-83
2021/03/31 04:27:10;;;;;;;43.57;33.60;;;;;;;;;;5053391;28;20577;-83
2021/03/31 04:29:38;;;;;;;54.87;43.23;;;;;;;;;;5053547;28;20282;-83
2021/03/31 04:32:04;;;;;;;45.57;37.60;;;;;;;;;;5053361;28;20579;-83
2021/03/31 04:34:30;;;;;;;43.07;32.43;;;;;;;;;;5053233;28;20211;-83
2021/03/31 04:36:55;;;;;;;42.50;29.20;;;;;;;;;;5053647;28;20179;-82
2021/03/31 04:39:22;;;;;;;37.87;27.83;;;;;;;;;;5053319;28;20210;-83
2021/03/31 04:41:48;;;;;;;40.87;28.83;;;;;;;;;;5053257;28;20175;-83
2021/03/31 04:44:13;;;;;;;41.07;29.87;;;;;;;;;;5053927;28;20259;-83
2021/03/31 04:46:38;;;;;;;41.63;29.63;;;;;;;;;;5053676;28;20606;-83
2021/03/31 04:49:04;;;;;;;41.17;29.20;;;;;;;;;;5053409;28;20199;-83
2021/03/31 04:51:29;;;;;;;40.53;29.17;;;;;;;;;;5053300;28;20172;-83
2021/03/31 04:53:54;;;;;;;41.50;28.93;;;;;;;;;;5053325;28;20168;-83
2021/03/31 04:56:20;;;;;;;37.50;27.67;;;;;;;;;;5053308;28;20164;-83
2021/03/31 04:58:45;;;;;;;35.20;27.90;;;;;;;;;;5053161;28;20282;-83
2021/03/31 05:01:11;;;;;;;39.13;30.40;;;;;;;;;;5053842;28;20172;-83
2021/03/31 05:03:36;;;;;;;38.60;30.90;;;;;;;;;;5053205;28;20222;-83
2021/03/31 05:06:01;;;;;;;39.63;31.30;;;;;;;;;;5053286;28;20505;-84
2021/03/31 05:08:27;;;;;;;48.90;37.67;;;;;;;;;;5053075;28;20713;-84
2021/03/31 05:10:52;;;;;;;49.13;40.77;;;;;;;;;;5053550;28;20176;-84
2021/03/31 05:13:17;;;;;;;54.00;44.80;;;;;;;;;;5053078;28;20601;-84
2021/03/31 05:15:43;;;;;;;55.33;45.57;;;;;;;;;;5077442;28;20152;-84
2021/03/31 05:18:08;;;;;;;56.30;45.93;;;;;;;;;;5078037;28;20148;-83
2021/03/31 05:20:34;;;;;;;51.70;44.33;;;;;;;;;;5076988;28;20199;-83
2021/03/31 05:23:00;;;;;;;46.70;40.37;;;;;;;;;;5077682;28;20172;-84
2021/03/31 05:25:25;;;;;;;45.77;40.27;;;;;;;;;;5058441;28;20627;-82
2021/03/31 05:27:50;;;;;;;42.65;37.63;;;;;;;;;;5057017;28;20618;-82
2021/03/31 05:30:16;;;;;;;40.70;36.33;;;;;;;;;;5056628;28;20199;-82
2021/03/31 05:32:41;;;;;;;42.10;37.70;;;;;;;;;;5057105;28;20550;-82
2021/03/31 05:35:07;;;;;;;40.45;36.28;;;;;;;;;;5057156;28;20179;-82
2021/03/31 05:37:33;;;;;;;33.55;30.05;;;;;;;;;;5056442;28;20199;-82
2021/03/31 05:39:58;;;;;;;27.85;25.25;;;;;;;;;;5057017;28;20208;-82
2021/03/31 05:42:24;;;;;;;26.50;23.88;;;;;;;;;;5056505;28;20194;-83
2021/03/31 05:44:49;;;;;;;24.77;22.48;;;;;;;;;;5056947;28;20249;-82
2021/03/31 05:47:24;;;;;;;25.00;22.65;;;;;;;;;;5057102;28;20175;-82
2021/03/31 05:49:50;;;;;;;24.05;21.88;;;;;;;;;;5056086;28;20201;-83
2021/03/31 05:52:15;;;;;;;24.20;22.02;;;;;;;;;;5056085;28;20200;-83
2021/03/31 05:54:41;;;;;;;26.45;23.85;;;;;;;;;;5056406;28;20589;-83
2021/03/31 05:57:09;;;;;;;26.13;23.52;;;;;;;;;;5056638;28;20164;-83
2021/03/31 05:59:36;;;;;;;24.98;22.67;;;;;;;;;;5056572;28;20650;-83
2021/03/31 06:02:01;;;;;;;23.90;21.80;;;;;;;;;;5055961;28;20168;-83
2021/03/31 06:04:27;;;;;;;25.50;23.17;;;;;;;;;;5056760;28;20171;-83
2021/03/31 06:06:52;;;;;;;25.83;23.63;;;;;;;;;;5055627;28;20227;-83
2021/03/31 06:09:17;;;;;;;25.92;23.63;;;;;;;;;;5055791;28;20195;-83
2021/03/31 06:11:47;;;;;;;26.23;23.83;;;;;;;;;;5056287;28;20687;-83
2021/03/31 06:14:13;;;;;;;25.25;22.95;;;;;;;;;;5055901;28;20176;-83
2021/03/31 06:16:43;;;;;;;24.75;22.55;;;;;;;;;;5056509;28;20172;-83
2021/03/31 06:19:17;;;;;;;25.83;23.63;;;;;;;;;;5056189;28;20172;-83
2021/03/31 06:21:54;;;;;;;25.85;23.52;;;;;;;;;;5056174;28;20175;-83
2021/03/31 06:24:22;;;;;;;25.83;23.45;;;;;;;;;;5054822;28;20265;-83
2021/03/31 06:26:47;;;;;;;26.10;23.92;;;;;;;;;;5055759;28;20169;-82
2021/03/31 06:29:13;;;;;;;26.50;24.00;;;;;;;;;;5054591;28;20619;-83
2021/03/31 06:31:39;;;;;;;26.70;24.30;;;;;;;;;;5055392;28;20176;-82
2021/03/31 06:34:13;;;;;;;28.98;26.33;;;;;;;;;;5055599;28;20602;-83
2021/03/31 06:36:42;;;;;;;28.67;26.30;;;;;;;;;;5055914;28;20160;-83
2021/03/31 06:39:22;;;;;;;27.45;25.05;;;;;;;;;;5056058;28;20514;-82
2021/03/31 06:41:55;;;;;;;28.77;26.30;;;;;;;;;;5055378;28;20175;-82
2021/03/31 06:44:39;;;;;;;27.88;25.50;;;;;;;;;;5055838;28;20611;-82
2021/03/31 06:47:10;;;;;;;26.73;24.23;;;;;;;;;;5055914;28;20160;-83
2021/03/31 06:49:36;;;;;;;27.50;25.10;;;;;;;;;;5055585;28;20254;-82
2021/03/31 06:52:11;;;;;;;26.73;24.42;;;;;;;;;;5055379;28;20263;-83
2021/03/31 06:54:44;;;;;;;27.00;24.80;;;;;;;;;;5055388;28;20262;-83
2021/03/31 06:57:11;;;;;;;40.53;25.67;;;;;;;;;;5055335;28;20641;-83
2021/03/31 06:59:36;;;;;;;26.63;24.23;;;;;;;;;;5055335;28;20223;-83
2021/03/31 07:02:03;;;;;;;27.58;25.00;;;;;;;;;;5055212;28;20622;-83
2021/03/31 07:04:28;;;;;;;24.60;22.50;;;;;;;;;;5055449;28;20522;-83
2021/03/31 07:06:57;;;;;;;24.98;22.92;;;;;;;;;;5054505;28;20317;-83
2021/03/31 07:09:23;;;;;;;25.98;23.77;;;;;;;;;;5054865;28;20192;-83
2021/03/31 07:11:48;;;;;;;25.65;23.35;;;;;;;;;;5055208;28;20684;-83
2021/03/31 07:14:14;;;;;;;24.92;22.83;;;;;;;;;;5054926;28;20164;-83
2021/03/31 07:16:40;;;;;;;24.95;22.95;;;;;;;;;;5054665;28;20171;-83
2021/03/31 07:19:06;;;;;;;25.50;23.30;;;;;;;;;;5055138;28;20224;-83
2021/03/31 07:21:32;;;;;;;27.17;24.85;;;;;;;;;;5054154;28;20172;-83
2021/03/31 07:23:57;;;;;;;28.45;25.85;;;;;;;;;;5054882;28;20164;-83
2021/03/31 07:26:23;;;;;;;29.42;26.75;;;;;;;;;;5054315;28;20267;-83
2021/03/31 07:28:50;;;;;;;29.35;26.35;;;;;;;;;;5054604;28;20238;-83
2021/03/31 07:31:20;;;;;;;26.98;24.50;;;;;;;;;;5054387;28;20183;-83
2021/03/31 07:33:49;;;;;;;26.85;24.45;;;;;;;;;;5054555;28;20175;-83
2021/03/31 07:36:16;;;;;;;25.75;23.65;;;;;;;;;;5054228;28;20183;-83
2021/03/31 07:38:41;;;;;;;25.13;23.02;;;;;;;;;;5054503;28;20160;-83
2021/03/31 07:41:07;;;;;;;25.58;23.38;;;;;;;;;;5054938;28;20171;-83
2021/03/31 07:43:37;;;;;;;25.65;23.35;;;;;;;;;;5054405;28;20171;-83
2021/03/31 07:46:15;;;;;;;25.15;23.05;;;;;;;;;;5053307;28;20527;-83
2021/03/31 07:48:40;;;;;;;26.10;23.73;;;;;;;;;;5054083;28;20186;-83
2021/03/31 07:51:18;;;;;;;25.98;23.42;;;;;;;;;;5054000;28;20180;-83
2021/03/31 07:53:44;;;;;;;26.30;23.88;;;;;;;;;;5054513;28;20171;-83
2021/03/31 07:56:32;;;;;;;26.58;24.27;;;;;;;;;;5054307;28;20629;-83
2021/03/31 07:59:04;;;;;;;26.17;23.75;;;;;;;;;;5048524;28;20693;-84
2021/03/31 08:01:34;;;;;;;25.83;23.38;;;;;;;;;;5054410;28;20175;-84
2021/03/31 08:04:00;;;;;;;25.30;23.05;;;;;;;;;;5054024;28;20176;-84
2021/03/31 08:06:28;;;;;;;24.70;22.33;;;;;;;;;;5054102;28;20269;-83
2021/03/31 08:08:55;;;;;;;26.33;23.77;;;;;;;;;;5055217;28;20227;-83
2021/03/31 08:11:38;;;;;;;24.85;22.52;;;;;;;;;;5054591;28;20542;-83
2021/03/31 08:14:07;;;;;;;23.38;21.27;;;;;;;;;;5053964;28;20626;-83
2021/03/31 08:16:34;;;;;;;25.05;22.38;;;;;;;;;;5053552;28;20267;-83
2021/03/31 08:19:00;;;;;;;25.55;23.05;;;;;;;;;;5053787;28;20183;-83
2021/03/31 08:21:27;;;;;;;24.95;22.60;;;;;;;;;;5053831;28;20172;-83
2021/03/31 08:23:54;;;;;;;25.40;22.88;;;;;;;;;;5052790;28;20179;-83
2021/03/31 08:26:40;;;;;;;24.27;21.77;;;;;;;;;;5053761;28;20168;-83
2021/03/31 08:29:07;;;;;;;23.85;21.42;;;;;;;;;;5053352;28;20206;-82
2021/03/31 08:31:38;;;;;;;24.75;22.35;;;;;;;;;;5054007;28;20199;-82
2021/03/31 08:34:03;;;;;;;22.75;20.60;;;;;;;;;;5054283;28;20607;-83
2021/03/31 08:36:29;;;;;;;22.98;20.48;;;;;;;;;;5053923;28;20171;-82
2021/03/31 08:38:55;;;;;;;22.35;20.27;;;;;;;;;;5047819;28;20187;-83
2021/03/31 08:41:22;;;;;;;22.95;20.65;;;;;;;;;;5046423;28;20169;-83
2021/03/31 08:43:48;;;;;;;22.95;20.65;;;;;;;;;;5041754;28;20212;-82
2021/03/31 08:46:26;;;;;;;22.23;20.05;;;;;;;;;;5043752;28;20175;-82
2021/03/31 08:48:51;;;;;;;21.95;19.65;;;;;;;;;;5043872;28;20171;-82
2021/03/31 08:51:18;;;;;;;21.25;19.17;;;;;;;;;;5044020;28;20164;-82
2021/03/31 08:53:43;;;;;;;19.25;17.33;;;;;;;;;;5042352;28;20172;-82
2021/03/31 08:56:15;;;;;;;19.40;17.33;;;;;;;;;;5044755;28;20646;-82
2021/03/31 08:58:40;;;;;;;19.38;16.98;;;;;;;;;;5043956;28;20188;-82
2021/03/31 09:01:06;;;;;;;18.55;16.80;;;;;;;;;;5046654;28;20170;-82
2021/03/31 09:03:31;;;;;;;19.15;17.25;;;;;;;;;;5038379;28;20215;-82
2021/03/31 09:06:00;;;;;;;17.38;15.43;;;;;;;;;;5037459;28;20630;-82
2021/03/31 09:08:27;;;;;;;17.58;15.77;;;;;;;;;;5046923;28;20750;-82
2021/03/31 09:10:56;;;;;;;19.20;17.15;;;;;;;;;;5047272;28;20554;-83
2021/03/31 09:13:22;;;;;;;19.60;17.60;;;;;;;;;;5045713;28;20307;-82
2021/03/31 09:15:57;;;;;;;21.88;19.77;;;;;;;;;;5046301;28;20694;-83
2021/03/31 09:18:23;;;;;;;22.13;18.60;;;;;;;;;;5037087;28;20168;-82
2021/03/31 09:20:48;;;;;;;19.48;17.45;;;;;;;;;;5037262;28;20733;-82
2021/03/31 09:23:21;;;;;;;18.58;16.63;;;;;;;;;;5037836;28;20196;-82
2021/03/31 09:25:56;;;;;;;17.08;14.55;;;;;;;;;;5056916;28;20164;-82
2021/03/31 09:28:21;;;;;;;15.23;13.50;;;;;;;;;;5056560;28;20528;-81
2021/03/31 09:30:50;;;;;;;15.05;13.48;;;;;;;;;;5056003;28;20200;-83
2021/03/31 09:33:25;;;;;;;16.15;14.55;;;;;;;;;;5056607;28;20259;-82
2021/03/31 09:35:50;;;;;;;14.40;12.95;;;;;;;;;;5056835;28;20152;-82
2021/03/31 09:38:23;;;;;;;14.32;12.00;;;;;;;;;;5055417;28;20167;-82
2021/03/31 09:40:56;;;;;;;13.68;12.30;;;;;;;;;;5055113;28;20171;-82
2021/03/31 09:43:22;;;;;;;15.25;13.07;;;;;;;;;;5055042;28;20160;-83
2021/03/31 09:45:52;;;;;;;13.50;11.45;;;;;;;;;;5055133;28;20218;-82
2021/03/31 09:48:18;;;;;;;14.93;13.43;;;;;;;;;;5053621;28;20729;-82
2021/03/31 09:50:44;;;;;;;17.52;14.27;;;;;;;;;;5054622;28;20290;-82
2021/03/31 09:53:09;;;;;;;18.05;15.27;;;;;;;;;;5054794;28;20167;-82
2021/03/31 09:55:36;;;;;;;16.02;14.45;;;;;;;;;;5054655;28;20203;-82
2021/03/31 09:58:02;;;;;;;16.92;14.38;;;;;;;;;;5054277;28;20222;-82
2021/03/31 10:00:27;;;;;;;17.88;14.77;;;;;;;;;;5054773;28;20642;-82
2021/03/31 10:02:53;;;;;;;15.18;13.55;;;;;;;;;;5050952;28;20211;-82
2021/03/31 10:05:21;;;;;;;17.58;11.90;;;;;;;;;;5052853;28;20572;-82
2021/03/31 10:08:00;;;;;;;15.45;12.65;;;;;;;;;;5047238;28;20228;-82
2021/03/31 10:10:42;;;;;;;16.00;13.63;;;;;;;;;;5053944;28;20207;-82
2021/03/31 10:13:08;;;;;;;15.18;12.73;;;;;;;;;;5054148;28;20168;-82
2021/03/31 10:15:33;;;;;;;14.30;12.82;;;;;;;;;;5054032;28;20665;-82
2021/03/31 10:17:59;;;;;;;17.30;14.85;;;;;;;;;;5053791;28;20195;-84
2021/03/31 10:20:28;;;;;;;18.35;13.95;;;;;;;;;;5054266;28;20180;-83
2021/03/31 10:22:54;;;;;;;16.55;14.57;;;;;;;;;;5053865;28;20830;-83
2021/03/31 10:25:23;;;;;;;18.35;15.57;;;;;;;;;;5053718;28;20168;-84
2021/03/31 10:27:48;;;;;;;16.98;13.20;;;;;;;;;;5053818;28;20270;-82
2021/03/31 10:30:24;;;;;;;18.95;13.90;;;;;;;;;;5053646;28;20713;-82
2021/03/31 10:32:50;;;;;;;16.48;14.43;;;;;;;;;;5053678;28;20221;-83
2021/03/31 10:35:16;;;;;;;16.75;13.45;;;;;;;;;;5053973;28;20179;-83
2021/03/31 10:37:55;;;;;;;14.38;12.35;;;;;;;;;;5053701;28;20590;-83
2021/03/31 10:51:11;;;;;;;13.30;11.13;;;;;;;;;;5051884;28;20223;-83
2021/03/31 10:53:40;;;;;;;14.70;9.93;;;;;;;;;;5051660;28;20610;-82
2021/03/31 10:56:06;;;;;;;11.40;9.80;;;;;;;;;;5051809;28;20618;-82
2021/03/31 10:58:31;;;;;;;10.73;9.38;;;;;;;;;;5053423;28;20238;-80
2021/03/31 11:00:57;;;;;;;13.45;10.75;;;;;;;;;;5052247;28;20541;-82
2021/03/31 11:03:23;;;;;;;12.52;9.88;;;;;;;;;;5053409;28;20172;-82
2021/03/31 11:05:48;;;;;;;11.20;10.05;;;;;;;;;;5053382;28;20175;-83
2021/03/31 11:08:14;;;;;;;9.50;8.60;;;;;;;;;;5051070;28;20298;-83
2021/03/31 11:10:39;;;;;;;10.70;8.50;;;;;;;;;;5035586;28;20208;-82
2021/03/31 11:13:04;;;;;;;11.98;9.10;;;;;;;;;;5033137;28;20234;-83
2021/03/31 11:15:30;;;;;;;10.93;9.55;;;;;;;;;;5033326;28;20207;-82
2021/03/31 11:18:15;;;;;;;12.48;9.48;;;;;;;;;;5034791;28;20176;-82
2021/03/31 11:25:58;;;;;;;10.05;8.10;;;;;;;;;;5034549;28;20164;-82
2021/03/31 11:28:24;;;;;;;10.90;9.32;;;;;;;;;;5034312;28;20165;-82
2021/03/31 11:30:50;;;;;;;14.43;10.38;;;;;;;;;;5032311;28;20211;-82
2021/03/31 11:33:16;;;;;;;12.52;10.45;;;;;;;;;;5032632;28;20271;-82
2021/03/31 11:35:41;;;;;;;11.43;9.75;;;;;;;;;;5032456;28;20284;-83
2021/03/31 11:38:07;;;;;;;10.45;8.95;;;;;;;;;;5034238;28;20172;-82
2021/03/31 11:40:32;;;;;;;10.43;8.63;;;;;;;;;;5034218;28;20609;-82
2021/03/31 11:42:57;;;;;;;10.63;8.65;;;;;;;;;;5048438;28;20180;-82
2021/03/31 11:45:23;;;;;;;9.77;8.77;;;;;;;;;;5032597;28;20168;-82
2021/03/31 11:47:48;;;;;;;9.80;8.57;;;;;;;;;;5032512;28;20184;-82
2021/03/31 11:50:14;;;;;;;11.15;8.90;;;;;;;;;;5032059;28;20285;-82
2021/03/31 11:52:39;;;;;;;11.35;7.65;;;;;;;;;;5032094;28;20175;-82
2021/03/31 11:55:05;;;;;;;10.55;8.23;;;;;;;;;;5032305;28;20169;-82
2021/03/31 11:57:30;;;;;;;9.07;6.53;;;;;;;;;;5032279;28;20179;-82
2021/03/31 11:59:56;;;;;;;7.47;6.63;;;;;;;;;;5032172;28;20192;-83
2021/03/31 12:02:21;;;;;;;7.47;6.78;;;;;;;;;;5032373;28;20165;-82
2021/03/31 12:04:46;;;;;;;8.63;7.18;;;;;;;;;;5032171;28;20179;-82
2021/03/31 12:07:12;;;;;;;8.75;7.80;;;;;;;;;;5031857;28;20224;-83
2021/03/31 12:09:41;;;;;;;9.07;6.50;;;;;;;;;;5032213;28;20199;-82
2021/03/31 12:12:11;;;;;;;7.00;6.30;;;;;;;;;;5031808;28;20653;-81
2021/03/31 12:14:36;;;;;;;16.20;11.13;;;;;;;;;;5031823;28;20202;-82
2021/03/31 12:17:02;;;;;;;16.50;12.63;;;;;;;;;;5031945;28;20617;-82
2021/03/31 12:19:28;;;;;;;15.25;9.07;;;;;;;;;;5032251;28;20180;-82
2021/03/31 12:21:54;;;;;;;8.85;6.82;;;;;;;;;;5031991;28;20172;-82
2021/03/31 12:24:19;;;;;;;10.30;6.93;;;;;;;;;;5031664;28;20175;-82
2021/03/31 12:26:45;;;;;;;8.43;7.53;;;;;;;;;;5032128;28;20515;-81
2021/03/31 12:29:10;;;;;;;9.52;7.05;;;;;;;;;;5031829;28;20671;-81
2021/03/31 12:31:36;;;;;;;8.32;7.13;;;;;;;;;;5031486;28;20188;-81
2021/03/31 12:34:01;;;;;;;7.97;6.88;;;;;;;;;;5031051;28;20221;-81
2021/03/31 12:36:27;;;;;;;7.68;5.68;;;;;;;;;;5031733;28;20187;-81
2021/03/31 12:38:52;;;;;;;9.57;5.90;;;;;;;;;;5031508;28;20172;-82
2021/03/31 12:41:17;;;;;;;6.47;5.82;;;;;;;;;;5031824;28;20591;-82
2021/03/31 12:43:43;;;;;;;8.55;5.97;;;;;;;;;;5031448;28;20173;-82
2021/03/31 12:46:08;;;;;;;7.97;5.88;;;;;;;;;;5031689;28;20183;-82
2021/03/31 12:48:33;;;;;;;6.75;6.13;;;;;;;;;;5031485;28;20219;-82
2021/03/31 12:51:06;;;;;;;11.80;7.68;;;;;;;;;;5031211;28;20987;-82
2021/03/31 12:53:36;;;;;;;9.88;6.85;;;;;;;;;;5033009;28;20624;-82
2021/03/31 12:56:02;;;;;;;8.30;5.90;;;;;;;;;;5041664;28;20179;-81
2021/03/31 12:58:27;;;;;;;7.60;5.50;;;;;;;;;;5039734;28;20191;-81
2021/03/31 13:00:53;;;;;;;5.05;4.65;;;;;;;;;;5034875;28;20188;-81
2021/03/31 13:03:18;;;;;;;7.07;5.38;;;;;;;;;;5031488;28;20532;-81
2021/03/31 13:05:44;;;;;;;9.23;5.55;;;;;;;;;;5031382;28;20181;-82
2021/03/31 13:08:12;;;;;;;8.43;5.60;;;;;;;;;;5031571;28;20275;-81
2021/03/31 13:10:38;;;;;;;8.45;6.10;;;;;;;;;;5030153;28;20291;-82
2021/03/31 13:13:10;;;;;;;8.02;5.65;;;;;;;;;;5031591;28;20173;-82
2021/03/31 13:15:38;;;;;;;8.43;6.07;;;;;;;;;;5031499;28;20500;-82
2021/03/31 13:23:44;;;;;;;9.90;6.28;;;;;;;;;;5031464;28;20677;-81
2021/03/31 13:26:13;;;;;;;8.73;5.72;;;;;;;;;;5030921;28;20176;-81
2021/03/31 13:32:07;;;;;;;9.05;6.40;;;;;;;;;;5031279;28;20183;-82
2021/03/31 13:34:19;;;;;;;7.43;6.15;;;;;;;;;;5028072;28;20177;-82
2021/03/31 13:36:53;;;;;;;7.20;6.05;;;;;;;;;;5031268;28;20173;-82
2021/03/31 13:39:27;;;;;;;8.93;6.57;;;;;;;;;;5036035;28;20193;-82
2021/03/31 13:41:52;;;;;;;9.07;6.95;;;;;;;;;;5051134;28;20208;-82
2021/03/31 13:44:17;;;;;;;8.52;7.45;;;;;;;;;;5051289;28;20207;-82
2021/03/31 13:46:49;;;;;;;10.82;6.35;;;;;;;;;;5054588;28;20179;-82
2021/03/31 13:49:31;;;;;;;8.35;7.10;;;;;;;;;;5054462;28;20200;-82
2021/03/31 13:52:09;;;;;;;11.05;8.35;;;;;;;;;;5054403;28;20161;-82
2021/03/31 13:55:11;;;;;;;9.48;8.27;;;;;;;;;;5054364;28;20231;-82
2021/03/31 13:57:29;;;;;;;10.88;7.63;;;;;;;;;;5052800;28;20184;-81
2021/03/31 13:59:55;;;;;;;12.02;10.27;;;;;;;;;;5054043;28;20626;-80
2021/03/31 14:02:20;;;;;;;9.32;8.23;;;;;;;;;;5054007;28;20172;-82
2021/03/31 14:04:46;;;;;;;11.32;8.27;;;;;;;;;;5054054;28;20167;-83
2021/03/31 14:07:11;;;;;;;11.63;8.20;;;;;;;;;;5053931;28;20585;-82
2021/03/31 14:09:37;;;;;;;9.48;8.43;;;;;;;;;;5053845;28;20210;-82
2021/03/31 14:12:03;;;;;;;11.80;8.70;;;;;;;;;;5054253;28;20168;-82
2021/03/31 14:14:28;;;;;;;9.48;8.10;;;;;;;;;;5054131;28;20174;-82
2021/03/31 14:17:12;;;;;;;9.73;8.32;;;;;;;;;;5054161;28;20168;-82
2021/03/31 14:19:41;;;;;;;12.18;8.40;;;;;;;;;;5063195;28;20163;-82
2021/03/31 14:22:06;;;;;;;10.05;8.63;;;;;;;;;;5055515;28;20174;-82
2021/03/31 14:24:32;;;;;;;10.48;9.38;;;;;;;;;;5044375;28;21085;-82
2021/03/31 14:26:57;;;;;;;12.27;10.10;;;;;;;;;;5046122;28;20171;-81
2021/03/31 14:29:23;;;;;;;11.00;8.52;;;;;;;;;;5051824;28;20207;-82
2021/03/31 14:31:48;;;;;;;11.05;8.40;;;;;;;;;;5053524;28;20704;-82
2021/03/31 14:34:13;;;;;;;10.70;8.70;;;;;;;;;;5054277;28;20275;-82
2021/03/31 14:36:39;;;;;;;9.35;8.45;;;;;;;;;;5073279;28;20675;-83
2021/03/31 14:39:05;;;;;;;12.30;8.27;;;;;;;;;;5073152;28;20167;-82
2021/03/31 14:41:30;;;;;;;8.73;7.82;;;;;;;;;;5073209;28;20178;-82
2021/03/31 14:43:56;;;;;;;11.25;8.35;;;;;;;;;;5073443;28;20179;-81
2021/03/31 14:46:21;;;;;;;8.77;7.88;;;;;;;;;;5073511;28;20177;-82